Time,TemperatureF,DewpointF,PressureIn,WindDirection,WindDirectionDegrees,WindSpeedMPH,WindSpeedGustMPH,Humidity,HourlyPrecipIn,Conditions,Clouds,dailyrainin,SoftwareType,DateUTC
2013-03-02 00:02:00,32.0,21.0,-100.00,ESE,105,5.0,11.0,63,0.00,,,-99.99,,2013-03-02 05:02:00,
2013-03-02 00:12:00,32.0,20.0,-100.00,ENE,65,4.0,8.0,63,0.00,,,-99.99,,2013-03-02 05:12:00,
2013-03-02 00:22:00,32.0,21.0,-100.00,ENE,65,4.0,9.0,63,0.00,,,-99.99,,2013-03-02 05:22:00,
2013-03-02 00:32:00,31.0,20.0,-100.00,East,80,6.0,11.0,62,0.00,,,-99.99,,2013-03-02 05:32:00,
2013-03-02 00:42:00,31.0,20.0,-100.00,ENE,65,3.0,8.0,63,0.00,,,-99.99,,2013-03-02 05:42:00,
2013-03-02 00:52:00,31.0,21.0,-100.00,ENE,60,4.0,6.0,64,0.00,,,-99.99,,2013-03-02 05:52:00,
2013-03-02 01:02:00,31.0,21.0,-100.00,East,95,3.0,9.0,64,0.00,,,-99.99,,2013-03-02 06:02:00,
2013-03-02 01:11:00,31.0,21.0,-100.00,East,90,3.0,8.0,65,0.00,,,-99.99,,2013-03-02 06:11:00,
2013-03-02 01:21:00,31.0,21.0,-100.00,ENE,65,6.0,9.0,66,0.00,,,-99.99,,2013-03-02 06:21:00,
2013-03-02 01:32:00,31.0,21.0,-100.00,East,85,4.0,7.0,67,0.00,,,-99.99,,2013-03-02 06:32:00,
2013-03-02 01:42:00,31.0,21.0,-100.00,NE,50,5.0,9.0,67,0.00,,,-99.99,,2013-03-02 06:42:00,
2013-03-02 01:52:00,31.0,22.0,-100.00,ENE,60,2.0,7.0,68,0.00,,,-99.99,,2013-03-02 06:52:00,
2013-03-02 02:01:00,31.0,22.0,-100.00,NE,55,4.0,9.0,68,0.00,,,-99.99,,2013-03-02 07:01:00,
2013-03-02 02:11:00,31.0,21.0,-100.00,East,85,6.0,12.0,68,0.00,,,-99.99,,2013-03-02 07:11:00,
2013-03-02 02:21:00,31.0,21.0,-100.00,East,95,6.0,9.0,67,0.00,,,-99.99,,2013-03-02 07:21:00,
2013-03-02 02:32:00,31.0,22.0,-100.00,East,80,3.0,7.0,68,0.00,,,-99.99,,2013-03-02 07:32:00,
2013-03-02 02:42:00,31.0,22.0,-100.00,ENE,75,3.0,9.0,68,0.00,,,-99.99,,2013-03-02 07:42:00,
2013-03-02 02:51:00,31.0,22.0,-100.00,ENE,75,2.0,7.0,69,0.00,,,-99.99,,2013-03-02 07:51:00,
2013-03-02 03:01:00,31.0,21.0,-100.00,ENE,75,6.0,9.0,68,0.00,,,-99.99,,2013-03-02 08:01:00,
2013-03-02 03:11:00,31.0,21.0,-100.00,ENE,60,4.0,9.0,67,0.00,,,-99.99,,2013-03-02 08:11:00,
2013-03-02 03:22:00,31.0,21.0,-100.00,ENE,75,5.0,9.0,68,0.00,,,-99.99,,2013-03-02 08:22:00,
2013-03-02 03:32:00,30.0,21.0,-100.00,East,80,7.0,10.0,67,0.00,,,-99.99,,2013-03-02 08:32:00,
2013-03-02 03:42:00,30.0,21.0,-100.00,ESE,110,4.0,10.0,68,0.00,,,-99.99,,2013-03-02 08:42:00,
2013-03-02 03:52:00,30.0,21.0,-100.00,ENE,75,4.0,12.0,67,0.00,,,-99.99,,2013-03-02 08:52:00,
2013-03-02 04:02:00,30.0,21.0,-100.00,East,80,6.0,11.0,67,0.00,,,-99.99,,2013-03-02 09:02:00,
2013-03-02 04:11:00,30.0,20.0,-100.00,East,100,4.0,11.0,67,0.00,,,-99.99,,2013-03-02 09:11:00,
2013-03-02 04:21:00,30.0,21.0,-100.00,East,95,3.0,9.0,67,0.00,,,-99.99,,2013-03-02 09:21:00,
2013-03-02 04:32:00,30.0,21.0,-100.00,ENE,75,6.0,9.0,67,0.00,,,-99.99,,2013-03-02 09:32:00,
2013-03-02 04:42:00,30.0,20.0,-100.00,East,80,4.0,9.0,66,0.00,,,-99.99,,2013-03-02 09:42:00,
2013-03-02 04:51:00,30.0,20.0,-100.00,East,80,5.0,10.0,67,0.00,,,-99.99,,2013-03-02 09:51:00,
2013-03-02 05:01:00,30.0,20.0,-100.00,ENE,70,6.0,9.0,67,0.00,,,-99.99,,2013-03-02 10:01:00,
2013-03-02 05:16:00,30.0,20.0,-100.00,East,95,4.0,9.0,66,0.00,,,-99.99,,2013-03-02 10:16:00,
2013-03-02 05:22:00,30.0,20.0,-100.00,East,85,3.0,8.0,68,0.00,,,-99.99,,2013-03-02 10:22:00,
2013-03-02 05:32:00,30.0,20.0,-100.00,East,90,5.0,9.0,67,0.00,,,-99.99,,2013-03-02 10:32:00,
2013-03-02 05:43:00,29.0,20.0,-100.00,East,95,4.0,7.0,67,0.00,,,-99.99,,2013-03-02 10:43:00,
2013-03-02 05:52:00,29.0,20.0,-100.00,ENE,75,4.0,7.0,67,0.00,,,-99.99,,2013-03-02 10:52:00,
2013-03-02 06:01:00,29.0,20.0,-100.00,East,80,7.0,12.0,67,0.00,,,-99.99,,2013-03-02 11:01:00,
2013-03-02 06:11:00,29.0,20.0,-100.00,ENE,70,4.0,7.0,66,0.00,,,-99.99,,2013-03-02 11:11:00,
2013-03-02 06:21:00,29.0,19.0,-100.00,ENE,70,7.0,9.0,66,0.00,,,-99.99,,2013-03-02 11:21:00,
2013-03-02 06:32:00,29.0,19.0,-100.00,East,80,3.0,9.0,66,0.00,,,-99.99,,2013-03-02 11:32:00,
2013-03-02 06:42:00,29.0,19.0,-100.00,ENE,70,6.0,9.0,66,0.00,,,-99.99,,2013-03-02 11:42:00,
2013-03-02 06:52:00,29.0,19.0,-100.00,ENE,70,3.0,9.0,66,0.00,,,-99.99,,2013-03-02 11:52:00,
2013-03-02 07:02:00,29.0,19.0,-100.00,East,80,4.0,9.0,65,0.00,,,-99.99,,2013-03-02 12:02:00,
2013-03-02 07:11:00,29.0,19.0,-100.00,ENE,75,5.0,10.0,66,0.00,,,-99.99,,2013-03-02 12:11:00,
2013-03-02 07:21:00,29.0,19.0,-100.00,East,85,4.0,7.0,65,0.00,,,-99.99,,2013-03-02 12:21:00,
2013-03-02 07:33:00,29.0,19.0,-100.00,ENE,65,7.0,12.0,65,0.00,,,-99.99,,2013-03-02 12:33:00,
2013-03-02 07:43:00,29.0,19.0,-100.00,ENE,75,6.0,9.0,66,0.00,,,-99.99,,2013-03-02 12:43:00,
2013-03-02 07:53:00,29.0,19.0,-100.00,East,95,6.0,9.0,67,0.00,,,-99.99,,2013-03-02 12:53:00,
2013-03-02 08:01:00,29.0,20.0,-100.00,NE,55,7.0,10.0,68,0.00,,,-99.99,,2013-03-02 13:01:00,
2013-03-02 08:11:00,29.0,20.0,-100.00,East,85,6.0,11.0,69,0.00,,,-99.99,,2013-03-02 13:11:00,
2013-03-02 08:22:00,29.0,20.0,-100.00,SE,130,4.0,12.0,69,0.00,,,-99.99,,2013-03-02 13:22:00,
2013-03-02 08:32:00,28.0,20.0,-100.00,East,85,5.0,9.0,69,0.00,,,-99.99,,2013-03-02 13:32:00,
2013-03-02 08:42:00,28.0,20.0,-100.00,ENE,65,6.0,11.0,69,0.00,,,-99.99,,2013-03-02 13:42:00,
2013-03-02 08:52:00,28.0,20.0,-100.00,ENE,75,5.0,12.0,71,0.55,,,-99.99,,2013-03-02 13:52:00,
2013-03-02 09:01:00,28.0,20.0,-100.00,ENE,65,4.0,11.0,73,0.00,,,-99.99,,2013-03-02 14:01:00,
2013-03-02 09:11:00,28.0,20.0,-100.00,East,85,4.0,10.0,72,0.00,,,-99.99,,2013-03-02 14:11:00,
2013-03-02 09:21:00,28.0,20.0,-100.00,ESE,105,3.0,9.0,71,0.00,,,-99.99,,2013-03-02 14:21:00,
2013-03-02 09:32:00,28.0,20.0,-100.00,ENE,60,4.0,9.0,70,0.00,,,-99.99,,2013-03-02 14:32:00,
2013-03-02 09:42:00,28.0,20.0,-100.00,NE,50,4.0,8.0,70,0.00,,,-99.99,,2013-03-02 14:42:00,
2013-03-02 09:52:00,28.0,20.0,-100.00,East,90,2.0,7.0,70,0.00,,,-99.99,,2013-03-02 14:52:00,
2013-03-02 10:02:00,28.0,20.0,-100.00,ENE,60,3.0,7.0,69,0.00,,,-99.99,,2013-03-02 15:02:00,
2013-03-02 10:11:00,28.0,19.0,-100.00,East,85,4.0,6.0,69,0.00,,,-99.99,,2013-03-02 15:11:00,
2013-03-02 10:21:00,29.0,20.0,-100.00,East,90,2.0,6.0,69,0.00,,,-99.99,,2013-03-02 15:21:00,
2013-03-02 10:32:00,28.0,20.0,-100.00,East,95,7.0,12.0,70,0.55,,,-99.99,,2013-03-02 15:32:00,
2013-03-02 10:42:00,28.0,21.0,-100.00,ENE,70,7.0,9.0,75,0.00,,,-99.99,,2013-03-02 15:42:00,
2013-03-02 10:52:00,28.0,22.0,-100.00,NE,55,3.0,7.0,78,0.55,,,-99.99,,2013-03-02 15:52:00,
2013-03-02 11:02:00,28.0,23.0,-100.00,East,100,2.0,4.0,80,0.00,,,-99.99,,2013-03-02 16:02:00,
2013-03-02 11:11:00,28.0,23.0,-100.00,ESE,120,3.0,6.0,79,0.00,,,-99.99,,2013-03-02 16:11:00,
2013-03-02 11:21:00,29.0,22.0,-100.00,NE,50,4.0,10.0,77,0.55,,,-99.99,,2013-03-02 16:21:00,
2013-03-02 11:32:00,29.0,23.0,-100.00,NNE,15,4.0,9.0,76,1.10,,,-99.99,,2013-03-02 16:32:00,
2013-03-02 11:42:00,29.0,22.0,-100.00,NE,55,6.0,9.0,75,0.00,,,-99.99,,2013-03-02 16:42:00,
2013-03-02 11:52:00,29.0,22.0,-100.00,ENE,60,5.0,10.0,74,0.00,,,-99.99,,2013-03-02 16:52:00,
2013-03-02 12:01:00,29.0,21.0,-100.00,NE,55,5.0,10.0,70,0.00,,,-99.99,,2013-03-02 17:01:00,
2013-03-02 12:11:00,29.0,20.0,-100.00,East,80,5.0,12.0,68,0.00,,,-99.99,,2013-03-02 17:11:00,
2013-03-02 12:21:00,29.0,21.0,-100.00,ENE,75,5.0,13.0,71,0.00,,,-99.99,,2013-03-02 17:21:00,
2013-03-02 12:32:00,30.0,20.0,-100.00,NE,45,7.0,12.0,67,0.00,,,-99.99,,2013-03-02 17:32:00,
2013-03-02 12:42:00,30.0,20.0,-100.00,ENE,65,7.0,10.0,67,0.00,,,-99.99,,2013-03-02 17:42:00,
2013-03-02 12:52:00,30.0,19.0,-100.00,ENE,70,8.0,15.0,64,0.00,,,-99.99,,2013-03-02 17:52:00,
2013-03-02 13:02:00,30.0,19.0,-100.00,ENE,60,7.0,14.0,63,0.00,,,-99.99,,2013-03-02 18:02:00,
2013-03-02 13:11:00,30.0,19.0,-100.00,ENE,75,9.0,16.0,62,0.00,,,-99.99,,2013-03-02 18:11:00,
2013-03-02 13:22:00,30.0,19.0,-100.00,NE,35,6.0,12.0,64,0.00,,,-99.99,,2013-03-02 18:22:00,
2013-03-02 13:32:00,30.0,20.0,-100.00,ENE,70,6.0,10.0,65,0.00,,,-99.99,,2013-03-02 18:32:00,
2013-03-02 13:42:00,29.0,20.0,-100.00,ENE,70,6.0,9.0,66,0.00,,,-99.99,,2013-03-02 18:42:00,
2013-03-02 13:52:00,29.0,19.0,-100.00,ENE,75,7.0,11.0,65,0.00,,,-99.99,,2013-03-02 18:52:00,
2013-03-02 14:02:00,30.0,20.0,-100.00,ENE,70,5.0,9.0,64,0.00,,,-99.99,,2013-03-02 19:02:00,
2013-03-02 14:11:00,30.0,19.0,-100.00,East,85,3.0,6.0,63,0.00,,,-99.99,,2013-03-02 19:11:00,
2013-03-02 14:22:00,30.0,19.0,-100.00,ESE,110,4.0,7.0,61,0.00,,,-99.99,,2013-03-02 19:22:00,
2013-03-02 14:32:00,30.0,19.0,-100.00,East,95,5.0,7.0,62,0.00,,,-99.99,,2013-03-02 19:32:00,
2013-03-02 14:42:00,31.0,19.0,-100.00,ENE,65,5.0,9.0,61,0.00,,,-99.99,,2013-03-02 19:42:00,
2013-03-02 14:52:00,30.0,19.0,-100.00,ENE,70,7.0,11.0,60,0.00,,,-99.99,,2013-03-02 19:52:00,
2013-03-02 15:01:00,31.0,19.0,-100.00,ENE,70,4.0,11.0,62,0.00,,,-99.99,,2013-03-02 20:01:00,
2013-03-02 15:11:00,30.0,19.0,-100.00,ENE,75,4.0,10.0,63,0.00,,,-99.99,,2013-03-02 20:11:00,
2013-03-02 15:22:00,30.0,20.0,-100.00,ENE,70,6.0,11.0,64,0.00,,,-99.99,,2013-03-02 20:22:00,
2013-03-02 15:32:00,30.0,20.0,-100.00,NE,45,5.0,12.0,66,0.00,,,-99.99,,2013-03-02 20:32:00,
2013-03-02 15:42:00,30.0,20.0,-100.00,ENE,60,4.0,8.0,65,0.00,,,-99.99,,2013-03-02 20:42:00,
2013-03-02 15:52:00,30.0,20.0,-100.00,ENE,75,5.0,9.0,65,0.00,,,-99.99,,2013-03-02 20:52:00,
2013-03-02 16:02:00,30.0,20.0,-100.00,ENE,75,4.0,7.0,65,0.00,,,-99.99,,2013-03-02 21:02:00,
2013-03-02 16:11:00,30.0,21.0,-100.00,NE,45,4.0,9.0,68,0.00,,,-99.99,,2013-03-02 21:11:00,
2013-03-02 16:22:00,30.0,20.0,-100.00,NE,45,6.0,12.0,65,0.00,,,-99.99,,2013-03-02 21:22:00,
2013-03-02 16:32:00,30.0,20.0,-100.00,ESE,105,7.0,12.0,66,0.00,,,-99.99,,2013-03-02 21:32:00,
2013-03-02 16:42:00,29.0,20.0,-100.00,ENE,75,4.0,14.0,67,0.00,,,-99.99,,2013-03-02 21:42:00,
2013-03-02 16:52:00,29.0,20.0,-100.00,East,90,7.0,12.0,67,0.00,,,-99.99,,2013-03-02 21:52:00,
2013-03-02 17:02:00,30.0,20.0,-100.00,ENE,60,4.0,10.0,67,0.00,,,-99.99,,2013-03-02 22:02:00,
2013-03-02 17:11:00,30.0,20.0,-100.00,East,80,4.0,9.0,67,0.00,,,-99.99,,2013-03-02 22:11:00,
2013-03-02 17:22:00,30.0,20.0,-100.00,ENE,65,4.0,9.0,65,0.00,,,-99.99,,2013-03-02 22:22:00,
2013-03-02 17:32:00,30.0,19.0,-100.00,ENE,65,6.0,10.0,63,0.00,,,-99.99,,2013-03-02 22:32:00,
2013-03-02 17:42:00,30.0,18.0,-100.00,ENE,70,8.0,12.0,60,0.00,,,-99.99,,2013-03-02 22:42:00,
2013-03-02 17:52:00,30.0,18.0,-100.00,ENE,65,7.0,14.0,60,0.00,,,-99.99,,2013-03-02 22:52:00,
2013-03-02 18:01:00,30.0,18.0,-100.00,ENE,60,4.0,13.0,61,0.00,,,-99.99,,2013-03-02 23:01:00,
2013-03-02 18:11:00,30.0,18.0,-100.00,NE,50,4.0,9.0,60,0.00,,,-99.99,,2013-03-02 23:11:00,
2013-03-02 18:21:00,30.0,17.0,-100.00,ENE,65,7.0,14.0,59,0.00,,,-99.99,,2013-03-02 23:21:00,
2013-03-02 18:32:00,30.0,18.0,-100.00,NE,50,6.0,9.0,60,0.00,,,-99.99,,2013-03-02 23:32:00,
2013-03-02 18:42:00,30.0,18.0,-100.00,NE,55,5.0,11.0,61,0.00,,,-99.99,,2013-03-02 23:42:00,
2013-03-02 18:52:00,29.0,18.0,-100.00,ENE,70,6.0,9.0,63,0.00,,,-99.99,,2013-03-02 23:52:00,
2013-03-02 19:02:00,29.0,19.0,-100.00,East,80,6.0,10.0,64,0.00,,,-99.99,,2013-03-03 00:02:00,
2013-03-02 19:11:00,30.0,19.0,-100.00,ENE,70,4.0,7.0,64,0.00,,,-99.99,,2013-03-03 00:11:00,
2013-03-02 19:22:00,30.0,18.0,-100.00,NNE,30,6.0,11.0,62,0.00,,,-99.99,,2013-03-03 00:22:00,
2013-03-02 19:32:00,30.0,18.0,-100.00,NE,55,6.0,9.0,62,0.00,,,-99.99,,2013-03-03 00:32:00,
2013-03-02 19:42:00,29.0,18.0,-100.00,NE,40,7.0,12.0,63,0.00,,,-99.99,,2013-03-03 00:42:00,
2013-03-02 19:52:00,29.0,19.0,-100.00,NE,50,6.0,11.0,63,0.00,,,-99.99,,2013-03-03 00:52:00,
2013-03-02 20:01:00,29.0,19.0,-100.00,NE,55,6.0,12.0,64,0.00,,,-99.99,,2013-03-03 01:01:00,
2013-03-02 20:11:00,29.0,19.0,-100.00,NE,50,6.0,10.0,65,0.00,,,-99.99,,2013-03-03 01:11:00,
2013-03-02 20:21:00,29.0,19.0,-100.00,ENE,70,6.0,9.0,64,0.00,,,-99.99,,2013-03-03 01:21:00,
2013-03-02 20:32:00,29.0,19.0,-100.00,ENE,65,4.0,7.0,65,0.00,,,-99.99,,2013-03-03 01:32:00,
2013-03-02 20:42:00,29.0,19.0,-100.00,NE,35,2.0,9.0,65,0.00,,,-99.99,,2013-03-03 01:42:00,
2013-03-02 20:52:00,29.0,19.0,-100.00,ENE,60,2.0,6.0,65,0.00,,,-99.99,,2013-03-03 01:52:00,
2013-03-02 21:01:00,29.0,19.0,-100.00,ENE,60,4.0,6.0,64,0.00,,,-99.99,,2013-03-03 02:01:00,
2013-03-02 21:11:00,29.0,19.0,-100.00,ENE,70,2.0,6.0,65,0.00,,,-99.99,,2013-03-03 02:11:00,
2013-03-02 21:21:00,29.0,19.0,-100.00,ENE,65,3.0,6.0,64,0.00,,,-99.99,,2013-03-03 02:21:00,
2013-03-02 21:32:00,29.0,19.0,-100.00,NE,45,1.0,6.0,64,0.00,,,-99.99,,2013-03-03 02:32:00,
2013-03-02 21:42:00,29.0,19.0,-100.00,NNE,30,2.0,4.0,64,0.00,,,-99.99,,2013-03-03 02:42:00,
2013-03-02 21:52:00,29.0,19.0,-100.00,SE,125,1.0,3.0,64,0.00,,,-99.99,,2013-03-03 02:52:00,
2013-03-02 22:01:00,29.0,19.0,-100.00,SE,135,1.0,3.0,64,0.00,,,-99.99,,2013-03-03 03:01:00,
2013-03-02 22:11:00,30.0,19.0,-100.00,ENE,60,1.0,3.0,64,0.00,,,-99.99,,2013-03-03 03:11:00,
2013-03-02 22:21:00,29.0,19.0,-100.00,SE,145,0.0,2.0,65,0.00,,,-99.99,,2013-03-03 03:21:00,
2013-03-02 22:32:00,29.0,19.0,-100.00,NNW,340,1.0,2.0,64,0.00,,,-99.99,,2013-03-03 03:32:00,
2013-03-02 22:42:00,30.0,19.0,-100.00,North,0,1.0,4.0,63,0.00,,,-99.99,,2013-03-03 03:42:00,
2013-03-02 22:52:00,30.0,19.0,-100.00,North,0,0.0,3.0,63,0.00,,,-99.99,,2013-03-03 03:52:00,
2013-03-02 23:01:00,30.0,19.0,-100.00,NNW,340,2.0,4.0,63,0.00,,,-99.99,,2013-03-03 04:01:00,
2013-03-02 23:11:00,29.0,19.0,-100.00,North,350,1.0,3.0,63,0.00,,,-99.99,,2013-03-03 04:11:00,
2013-03-02 23:21:00,29.0,19.0,-100.00,NNW,335,1.0,3.0,63,0.00,,,-99.99,,2013-03-03 04:21:00,
2013-03-02 23:32:00,29.0,19.0,-100.00,NNW,340,1.0,3.0,63,0.00,,,-99.99,,2013-03-03 04:32:00,
2013-03-02 23:42:00,29.0,19.0,-100.00,North,0,1.0,3.0,63,0.00,,,-99.99,,2013-03-03 04:42:00,
2013-03-02 23:51:00,30.0,19.0,-100.00,NNW,340,1.0,4.0,64,0.00,,,-99.99,,2013-03-03 04:51:00,